Impacts TAF Board
For situational awareness. Not to be used for flight planning purposes.
IDs:

KMWH - Moses Lake/Grant Cnt, WA, US

Issued at 0520 UTC 22 Oct 2021
Updated at 0548 UTC 22 Oct 2021
Potential Impact None Slight Moderate High
Time0452Z 22/06Z 22/07Z 22/08Z 22/09Z 22/10Z 22/11Z 22/12Z 22/13Z 22/14Z 22/15Z 22/16Z 22/17Z 22/18Z>>
Type OBS PRVL PRVL PRVL PRVL PRVL PRVL PRVL PRVL PRVL PRVL PRVL PRVL PRVL
VIS 10 >6 >6 >6 >6 >6 >6 >6 >6 >6 >6 >6 >6 >6
CIG 100 100 100 100 100 100 60 60 60 60 15 15 15 15
Cover OVC OVC OVC OVC OVC OVC OVC OVC OVC OVC OVC OVC OVC OVC
FltCat VFR VFR VFR VFR VFR VFR VFR VFR VFR VFR MVFR MVFR MVFR MVFR
WX -- -- -- -- -- -- -RA -RA -RA -RA -RA -RA -RA -RA
WDir 90 40 40 40 40 40 310 310 310 310 160 160 160 160
WSpd 8 6 6 6 6 6 5 5 5 5 5 5 5 5
WGst -- -- -- -- -- -- -- -- -- -- -- -- -- --
Raw TAF
KMWH 220520Z 2206/2306 04006KT P6SM SCT060 OVC100
  FM221100 31005KT P6SM -RA SCT040 OVC060
  FM221500 16005KT P6SM -RA SCT003 OVC015
  FM222200 20009KT P6SM -RA BKN020 OVC050
  FM230100 21008KT P6SM OVC050


Raw METAR
KMWH 220452Z 09008KT 10SM OVC100 16/07 A2974 RMK AO2 SLP071 T01610072
KMWH 220352Z 08008KT 10SM OVC100 15/07 A2979 RMK AO2 SLP091 T01500072
KMWH 220252Z 07011KT 10SM CLR 16/06 A2981 RMK AO2 SLP097 T01560061 56025

METAR Board
Radar Display
Forecast Discussion
For situational awareness. Not to be used for flight planning purposes.